Página principal
METAR-TAF:

METAR-TAF

Aeroportos :

Aeroporto Internacional de Xi'an Xianyang

Xian, China

latitude: 34-26N, longitude: 108-45E, altura: 479 m

Observação actual do tempo

O boletim foi feito há 59 minutos, às 04:00 UTC
Vento 6 kt de es-nordeste, variando entre norte e es-sudeste
Temperatura 23°C
Humidade 41%
Pressão 1013 hPa
Visibilidade 10 km ou mais
sem nuvens abaixo de 1500 metros e sem cumulonimbus

METAR: ZLXY 230400Z 07003MPS 010V120 CAVOK 23/09 Q1013 NOSIG

Hora: 12:59 (04:59 UTC)

Previsão

O boletim foi feito há 9 horas e 57 minutos, às 19:02 UTC
Previsão válida de 23 às 00 UTC a 23 às 24 UTC
Vento 6 kt de es-nordeste
Visibilidade: 5000 m
bruma

TAF: ZLXY 221902Z 2300/2324 06003MPS 5000 HZ NSC TX26/2307Z TN14/2321Z

Observações e previsões do tempo de mais de 4000 aeroportos (mensagens METAR e TAF).

As estações disponíveis são os pontos amarelos e vermelhos sobre o mapa.

Mova o rato sobre o mapa para ver o nome da estação.

Depois clique no ponto para visualizar as observações e previsões meteorológicas.

Para alterar o mapa : clique nos botões verdes com uma cruz preta para aumentar o zoom; no botão verde com uma pitada de zoom; ou nas setas verdes para mapas adjacentes.


METAR-TAF: